sensor_id;sensor_type;location;lat;lon;timestamp;P1;durP1;ratioP1;P2;durP2;ratioP2
23181;SDS011;11759;51.282;6.642;2023-04-25T00:02:25;32.38;;;7.40;;
23181;SDS011;11759;51.282;6.642;2023-04-25T00:04:52;27.85;;;7.40;;
23181;SDS011;11759;51.282;6.642;2023-04-25T00:07:19;27.48;;;7.90;;
23181;SDS011;11759;51.282;6.642;2023-04-25T00:09:46;20.55;;;7.00;;
23181;SDS011;11759;51.282;6.642;2023-04-25T00:12:12;28.75;;;6.93;;
23181;SDS011;11759;51.282;6.642;2023-04-25T00:14:39;19.48;;;7.03;;
23181;SDS011;11759;51.282;6.642;2023-04-25T00:17:06;24.60;;;6.72;;
23181;SDS011;11759;51.282;6.642;2023-04-25T00:19:33;21.13;;;6.65;;
23181;SDS011;11759;51.282;6.642;2023-04-25T00:22:01;29.45;;;7.45;;
23181;SDS011;11759;51.282;6.642;2023-04-25T00:24:27;19.95;;;6.28;;
23181;SDS011;11759;51.282;6.642;2023-04-25T00:26:54;20.02;;;6.68;;
23181;SDS011;11759;51.282;6.642;2023-04-25T00:29:20;22.70;;;6.75;;
23181;SDS011;11759;51.282;6.642;2023-04-25T00:31:47;31.40;;;6.90;;
23181;SDS011;11759;51.282;6.642;2023-04-25T00:34:14;19.58;;;6.30;;
23181;SDS011;11759;51.282;6.642;2023-04-25T00:36:40;23.25;;;7.38;;
23181;SDS011;11759;51.282;6.642;2023-04-25T00:39:12;28.90;;;7.40;;
23181;SDS011;11759;51.282;6.642;2023-04-25T00:41:39;22.70;;;7.18;;
23181;SDS011;11759;51.282;6.642;2023-04-25T00:44:06;22.55;;;6.53;;
23181;SDS011;11759;51.282;6.642;2023-04-25T00:46:35;27.70;;;7.18;;
23181;SDS011;11759;51.282;6.642;2023-04-25T00:49:02;25.50;;;6.72;;
23181;SDS011;11759;51.282;6.642;2023-04-25T00:51:29;19.17;;;6.85;;
23181;SDS011;11759;51.282;6.642;2023-04-25T00:53:57;20.85;;;6.65;;
23181;SDS011;11759;51.282;6.642;2023-04-25T00:56:24;22.58;;;6.35;;
23181;SDS011;11759;51.282;6.642;2023-04-25T00:58:52;20.90;;;6.55;;
23181;SDS011;11759;51.282;6.642;2023-04-25T01:01:20;20.42;;;6.90;;
23181;SDS011;11759;51.282;6.642;2023-04-25T01:03:47;28.95;;;6.35;;
23181;SDS011;11759;51.282;6.642;2023-04-25T01:06:17;12.98;;;5.80;;
23181;SDS011;11759;51.282;6.642;2023-04-25T01:08:43;24.75;;;6.10;;
23181;SDS011;11759;51.282;6.642;2023-04-25T01:11:10;13.45;;;5.97;;
23181;SDS011;11759;51.282;6.642;2023-04-25T01:13:37;22.85;;;6.63;;
23181;SDS011;11759;51.282;6.642;2023-04-25T01:16:03;20.98;;;6.75;;
23181;SDS011;11759;51.282;6.642;2023-04-25T01:18:31;19.90;;;6.10;;
23181;SDS011;11759;51.282;6.642;2023-04-25T01:21:02;15.68;;;5.97;;
23181;SDS011;11759;51.282;6.642;2023-04-25T01:23:34;17.63;;;6.32;;
23181;SDS011;11759;51.282;6.642;2023-04-25T01:26:01;19.45;;;6.13;;
23181;SDS011;11759;51.282;6.642;2023-04-25T01:28:28;24.30;;;6.78;;
23181;SDS011;11759;51.282;6.642;2023-04-25T01:30:55;17.70;;;5.90;;
23181;SDS011;11759;51.282;6.642;2023-04-25T01:33:22;21.15;;;6.47;;
23181;SDS011;11759;51.282;6.642;2023-04-25T01:35:49;17.25;;;6.20;;
23181;SDS011;11759;51.282;6.642;2023-04-25T01:38:18;19.45;;;6.22;;
23181;SDS011;11759;51.282;6.642;2023-04-25T01:40:46;17.40;;;6.18;;
23181;SDS011;11759;51.282;6.642;2023-04-25T01:43:18;16.45;;;6.70;;
23181;SDS011;11759;51.282;6.642;2023-04-25T01:45:44;13.85;;;5.88;;
23181;SDS011;11759;51.282;6.642;2023-04-25T01:48:12;12.68;;;5.63;;
23181;SDS011;11759;51.282;6.642;2023-04-25T01:50:39;18.77;;;5.40;;
23181;SDS011;11759;51.282;6.642;2023-04-25T01:53:08;17.17;;;6.15;;
23181;SDS011;11759;51.282;6.642;2023-04-25T01:55:37;19.23;;;5.97;;
23181;SDS011;11759;51.282;6.642;2023-04-25T01:58:07;16.50;;;5.25;;
23181;SDS011;11759;51.282;6.642;2023-04-25T02:00:56;11.45;;;5.10;;
23181;SDS011;11759;51.282;6.642;2023-04-25T02:03:26;15.13;;;5.50;;
23181;SDS011;11759;51.282;6.642;2023-04-25T02:05:54;16.45;;;4.93;;
23181;SDS011;11759;51.282;6.642;2023-04-25T02:08:24;11.77;;;4.27;;
23181;SDS011;11759;51.282;6.642;2023-04-25T02:10:54;16.27;;;4.78;;
23181;SDS011;11759;51.282;6.642;2023-04-25T02:13:22;14.68;;;4.90;;
23181;SDS011;11759;51.282;6.642;2023-04-25T02:15:57;20.20;;;5.28;;
23181;SDS011;11759;51.282;6.642;2023-04-25T02:18:24;18.05;;;5.70;;
23181;SDS011;11759;51.282;6.642;2023-04-25T02:20:52;11.48;;;4.80;;
23181;SDS011;11759;51.282;6.642;2023-04-25T02:23:21;19.27;;;5.35;;
23181;SDS011;11759;51.282;6.642;2023-04-25T02:25:48;15.07;;;5.55;;
23181;SDS011;11759;51.282;6.642;2023-04-25T02:28:15;14.93;;;6.07;;
23181;SDS011;11759;51.282;6.642;2023-04-25T02:30:41;20.15;;;5.85;;
23181;SDS011;11759;51.282;6.642;2023-04-25T02:33:11;16.40;;;6.03;;
23181;SDS011;11759;51.282;6.642;2023-04-25T02:35:37;14.93;;;5.45;;
23181;SDS011;11759;51.282;6.642;2023-04-25T02:38:04;14.52;;;5.45;;
23181;SDS011;11759;51.282;6.642;2023-04-25T02:40:40;14.70;;;5.82;;
23181;SDS011;11759;51.282;6.642;2023-04-25T02:43:12;21.73;;;6.40;;
23181;SDS011;11759;51.282;6.642;2023-04-25T02:45:40;25.25;;;6.13;;
23181;SDS011;11759;51.282;6.642;2023-04-25T02:48:07;15.93;;;5.50;;
23181;SDS011;11759;51.282;6.642;2023-04-25T02:50:34;17.73;;;6.38;;
23181;SDS011;11759;51.282;6.642;2023-04-25T02:53:00;12.90;;;5.38;;
23181;SDS011;11759;51.282;6.642;2023-04-25T02:55:33;20.70;;;6.05;;
23181;SDS011;11759;51.282;6.642;2023-04-25T02:58:02;21.38;;;6.65;;
23181;SDS011;11759;51.282;6.642;2023-04-25T03:00:39;15.75;;;6.00;;
23181;SDS011;11759;51.282;6.642;2023-04-25T03:03:05;14.60;;;5.43;;
23181;SDS011;11759;51.282;6.642;2023-04-25T03:05:32;18.30;;;6.55;;
23181;SDS011;11759;51.282;6.642;2023-04-25T03:07:59;19.58;;;6.68;;
23181;SDS011;11759;51.282;6.642;2023-04-25T03:10:31;16.17;;;6.50;;
23181;SDS011;11759;51.282;6.642;2023-04-25T03:13:02;27.63;;;6.57;;
23181;SDS011;11759;51.282;6.642;2023-04-25T03:15:32;17.67;;;7.10;;
23181;SDS011;11759;51.282;6.642;2023-04-25T03:17:59;16.60;;;6.30;;
23181;SDS011;11759;51.282;6.642;2023-04-25T03:20:25;17.10;;;6.25;;
23181;SDS011;11759;51.282;6.642;2023-04-25T03:22:52;33.08;;;7.20;;
23181;SDS011;11759;51.282;6.642;2023-04-25T03:25:19;22.58;;;7.25;;
23181;SDS011;11759;51.282;6.642;2023-04-25T03:27:46;23.75;;;7.25;;
23181;SDS011;11759;51.282;6.642;2023-04-25T03:30:12;24.65;;;7.45;;
23181;SDS011;11759;51.282;6.642;2023-04-25T03:32:41;20.88;;;7.70;;
23181;SDS011;11759;51.282;6.642;2023-04-25T03:35:08;28.85;;;7.22;;
23181;SDS011;11759;51.282;6.642;2023-04-25T03:37:35;25.70;;;7.15;;
23181;SDS011;11759;51.282;6.642;2023-04-25T03:40:01;29.98;;;6.32;;
23181;SDS011;11759;51.282;6.642;2023-04-25T03:42:48;22.45;;;7.30;;
23181;SDS011;11759;51.282;6.642;2023-04-25T03:45:17;27.33;;;7.60;;
23181;SDS011;11759;51.282;6.642;2023-04-25T03:47:43;24.67;;;7.70;;
23181;SDS011;11759;51.282;6.642;2023-04-25T03:50:10;35.40;;;8.30;;
23181;SDS011;11759;51.282;6.642;2023-04-25T03:52:37;22.50;;;8.38;;
23181;SDS011;11759;51.282;6.642;2023-04-25T03:55:04;27.92;;;6.78;;
23181;SDS011;11759;51.282;6.642;2023-04-25T03:57:31;24.75;;;6.97;;
23181;SDS011;11759;51.282;6.642;2023-04-25T03:59:58;24.90;;;7.97;;
23181;SDS011;11759;51.282;6.642;2023-04-25T04:02:28;24.27;;;7.90;;
23181;SDS011;11759;51.282;6.642;2023-04-25T04:04:55;31.20;;;7.47;;
23181;SDS011;11759;51.282;6.642;2023-04-25T04:07:23;33.95;;;7.45;;
23181;SDS011;11759;51.282;6.642;2023-04-25T04:09:54;26.00;;;7.45;;
23181;SDS011;11759;51.282;6.642;2023-04-25T04:12:29;33.78;;;7.75;;
23181;SDS011;11759;51.282;6.642;2023-04-25T04:14:56;26.13;;;7.20;;
23181;SDS011;11759;51.282;6.642;2023-04-25T04:17:22;24.90;;;7.20;;
23181;SDS011;11759;51.282;6.642;2023-04-25T04:19:51;24.05;;;6.60;;
23181;SDS011;11759;51.282;6.642;2023-04-25T04:22:19;21.88;;;7.25;;
23181;SDS011;11759;51.282;6.642;2023-04-25T04:24:47;25.73;;;7.13;;
23181;SDS011;11759;51.282;6.642;2023-04-25T04:27:19;22.73;;;6.78;;
23181;SDS011;11759;51.282;6.642;2023-04-25T04:30:12;24.42;;;7.47;;
23181;SDS011;11759;51.282;6.642;2023-04-25T04:32:54;23.65;;;7.70;;
23181;SDS011;11759;51.282;6.642;2023-04-25T04:35:22;25.48;;;7.03;;
23181;SDS011;11759;51.282;6.642;2023-04-25T04:37:50;29.17;;;8.35;;
23181;SDS011;11759;51.282;6.642;2023-04-25T04:40:18;22.42;;;6.90;;
23181;SDS011;11759;51.282;6.642;2023-04-25T04:42:51;25.15;;;7.80;;
23181;SDS011;11759;51.282;6.642;2023-04-25T04:45:46;32.42;;;8.25;;
23181;SDS011;11759;51.282;6.642;2023-04-25T04:48:31;34.10;;;7.40;;
23181;SDS011;11759;51.282;6.642;2023-04-25T04:51:17;24.42;;;7.13;;
23181;SDS011;11759;51.282;6.642;2023-04-25T04:53:52;32.85;;;7.20;;
23181;SDS011;11759;51.282;6.642;2023-04-25T04:56:35;21.60;;;7.40;;
23181;SDS011;11759;51.282;6.642;2023-04-25T04:59:25;38.17;;;7.45;;
23181;SDS011;11759;51.282;6.642;2023-04-25T05:02:18;29.05;;;7.25;;
23181;SDS011;11759;51.282;6.642;2023-04-25T05:04:57;18.58;;;7.18;;
23181;SDS011;11759;51.282;6.642;2023-04-25T05:07:50;38.58;;;7.82;;
23181;SDS011;11759;51.282;6.642;2023-04-25T05:10:43;20.58;;;7.10;;
23181;SDS011;11759;51.282;6.642;2023-04-25T05:13:18;27.95;;;7.45;;
23181;SDS011;11759;51.282;6.642;2023-04-25T05:16:02;39.30;;;7.40;;
23181;SDS011;11759;51.282;6.642;2023-04-25T05:18:37;29.35;;;7.07;;
23181;SDS011;11759;51.282;6.642;2023-04-25T05:21:23;25.92;;;6.68;;
23181;SDS011;11759;51.282;6.642;2023-04-25T05:24:06;26.50;;;7.13;;
23181;SDS011;11759;51.282;6.642;2023-04-25T05:27:05;23.52;;;6.22;;
23181;SDS011;11759;51.282;6.642;2023-04-25T05:30:04;22.38;;;6.18;;
23181;SDS011;11759;51.282;6.642;2023-04-25T05:32:40;17.80;;;5.65;;
23181;SDS011;11759;51.282;6.642;2023-04-25T05:35:07;24.33;;;6.40;;
23181;SDS011;11759;51.282;6.642;2023-04-25T05:37:43;21.65;;;5.78;;
23181;SDS011;11759;51.282;6.642;2023-04-25T05:40:12;19.85;;;5.32;;
23181;SDS011;11759;51.282;6.642;2023-04-25T05:43:05;20.73;;;5.22;;
23181;SDS011;11759;51.282;6.642;2023-04-25T05:45:47;13.07;;;4.43;;
23181;SDS011;11759;51.282;6.642;2023-04-25T05:48:33;21.75;;;5.10;;
23181;SDS011;11759;51.282;6.642;2023-04-25T05:51:15;24.05;;;6.07;;
23181;SDS011;11759;51.282;6.642;2023-04-25T05:53:56;22.67;;;5.70;;
23181;SDS011;11759;51.282;6.642;2023-04-25T05:56:22;19.60;;;5.25;;
23181;SDS011;11759;51.282;6.642;2023-04-25T05:58:51;17.08;;;5.40;;
23181;SDS011;11759;51.282;6.642;2023-04-25T06:01:18;17.95;;;5.47;;
23181;SDS011;11759;51.282;6.642;2023-04-25T06:03:45;20.70;;;5.43;;
23181;SDS011;11759;51.282;6.642;2023-04-25T06:06:12;18.25;;;5.68;;
23181;SDS011;11759;51.282;6.642;2023-04-25T06:08:40;20.38;;;5.47;;
23181;SDS011;11759;51.282;6.642;2023-04-25T06:11:10;14.90;;;4.95;;
23181;SDS011;11759;51.282;6.642;2023-04-25T06:13:37;21.30;;;5.15;;
23181;SDS011;11759;51.282;6.642;2023-04-25T06:16:05;16.10;;;4.93;;
23181;SDS011;11759;51.282;6.642;2023-04-25T06:18:38;24.45;;;5.15;;
23181;SDS011;11759;51.282;6.642;2023-04-25T06:21:06;25.65;;;5.65;;
23181;SDS011;11759;51.282;6.642;2023-04-25T06:23:34;19.10;;;4.72;;
23181;SDS011;11759;51.282;6.642;2023-04-25T06:26:03;17.15;;;4.82;;
23181;SDS011;11759;51.282;6.642;2023-04-25T06:28:35;17.80;;;4.47;;
23181;SDS011;11759;51.282;6.642;2023-04-25T06:31:02;19.25;;;5.10;;
23181;SDS011;11759;51.282;6.642;2023-04-25T06:36:01;21.13;;;4.93;;
23181;SDS011;11759;51.282;6.642;2023-04-25T06:38:30;22.30;;;3.97;;
23181;SDS011;11759;51.282;6.642;2023-04-25T06:40:57;21.90;;;4.28;;
23181;SDS011;11759;51.282;6.642;2023-04-25T06:43:26;17.17;;;4.18;;
23181;SDS011;11759;51.282;6.642;2023-04-25T06:46:12;21.08;;;4.50;;
23181;SDS011;11759;51.282;6.642;2023-04-25T06:51:10;19.15;;;4.13;;
23181;SDS011;11759;51.282;6.642;2023-04-25T06:53:38;16.65;;;3.85;;
23181;SDS011;11759;51.282;6.642;2023-04-25T06:56:07;17.90;;;3.92;;
23181;SDS011;11759;51.282;6.642;2023-04-25T06:58:45;16.77;;;4.95;;
23181;SDS011;11759;51.282;6.642;2023-04-25T07:01:30;26.25;;;4.00;;
23181;SDS011;11759;51.282;6.642;2023-04-25T07:04:05;16.70;;;4.03;;
23181;SDS011;11759;51.282;6.642;2023-04-25T07:06:35;25.70;;;4.30;;
23181;SDS011;11759;51.282;6.642;2023-04-25T07:09:10;20.98;;;3.95;;
23181;SDS011;11759;51.282;6.642;2023-04-25T07:11:43;20.88;;;3.83;;
23181;SDS011;11759;51.282;6.642;2023-04-25T07:14:09;19.33;;;3.47;;
23181;SDS011;11759;51.282;6.642;2023-04-25T07:16:39;16.73;;;3.40;;
23181;SDS011;11759;51.282;6.642;2023-04-25T07:19:07;18.92;;;3.47;;
23181;SDS011;11759;51.282;6.642;2023-04-25T07:21:34;11.90;;;2.80;;
23181;SDS011;11759;51.282;6.642;2023-04-25T07:24:03;16.05;;;2.83;;
23181;SDS011;11759;51.282;6.642;2023-04-25T07:26:34;22.45;;;3.80;;
23181;SDS011;11759;51.282;6.642;2023-04-25T07:29:19;23.52;;;3.60;;
23181;SDS011;11759;51.282;6.642;2023-04-25T07:31:46;14.57;;;3.75;;
23181;SDS011;11759;51.282;6.642;2023-04-25T07:34:12;12.77;;;2.67;;
23181;SDS011;11759;51.282;6.642;2023-04-25T07:36:39;15.93;;;3.40;;
23181;SDS011;11759;51.282;6.642;2023-04-25T07:39:06;16.50;;;3.70;;
23181;SDS011;11759;51.282;6.642;2023-04-25T07:41:34;14.98;;;3.70;;
23181;SDS011;11759;51.282;6.642;2023-04-25T07:44:01;14.57;;;2.70;;
23181;SDS011;11759;51.282;6.642;2023-04-25T07:46:30;11.38;;;2.63;;
23181;SDS011;11759;51.282;6.642;2023-04-25T07:48:57;17.35;;;3.10;;
23181;SDS011;11759;51.282;6.642;2023-04-25T07:51:23;16.15;;;3.05;;
23181;SDS011;11759;51.282;6.642;2023-04-25T07:53:53;17.52;;;3.13;;
23181;SDS011;11759;51.282;6.642;2023-04-25T07:56:20;18.90;;;3.30;;
23181;SDS011;11759;51.282;6.642;2023-04-25T07:58:48;15.55;;;2.97;;
23181;SDS011;11759;51.282;6.642;2023-04-25T08:01:17;14.77;;;3.30;;
23181;SDS011;11759;51.282;6.642;2023-04-25T08:03:52;16.77;;;3.00;;
23181;SDS011;11759;51.282;6.642;2023-04-25T08:06:25;13.15;;;2.85;;
23181;SDS011;11759;51.282;6.642;2023-04-25T08:09:13;12.32;;;2.90;;
23181;SDS011;11759;51.282;6.642;2023-04-25T08:11:41;11.90;;;2.53;;
23181;SDS011;11759;51.282;6.642;2023-04-25T08:14:11;10.93;;;3.33;;
23181;SDS011;11759;51.282;6.642;2023-04-25T08:16:39;12.98;;;2.50;;
23181;SDS011;11759;51.282;6.642;2023-04-25T08:19:06;9.25;;;3.28;;
23181;SDS011;11759;51.282;6.642;2023-04-25T08:21:33;11.43;;;2.72;;
23181;SDS011;11759;51.282;6.642;2023-04-25T08:24:04;10.90;;;2.88;;
23181;SDS011;11759;51.282;6.642;2023-04-25T08:26:35;9.25;;;2.15;;
23181;SDS011;11759;51.282;6.642;2023-04-25T08:29:04;7.70;;;2.10;;
23181;SDS011;11759;51.282;6.642;2023-04-25T08:31:32;7.28;;;2.10;;
23181;SDS011;11759;51.282;6.642;2023-04-25T08:34:01;15.38;;;2.53;;
23181;SDS011;11759;51.282;6.642;2023-04-25T08:36:42;15.90;;;3.03;;
23181;SDS011;11759;51.282;6.642;2023-04-25T08:39:20;17.45;;;2.40;;
23181;SDS011;11759;51.282;6.642;2023-04-25T08:42:06;13.48;;;3.20;;
23181;SDS011;11759;51.282;6.642;2023-04-25T08:47:05;9.73;;;2.33;;
23181;SDS011;11759;51.282;6.642;2023-04-25T08:49:39;10.20;;;2.70;;
23181;SDS011;11759;51.282;6.642;2023-04-25T08:52:06;12.18;;;2.33;;
23181;SDS011;11759;51.282;6.642;2023-04-25T08:54:34;11.57;;;1.90;;
23181;SDS011;11759;51.282;6.642;2023-04-25T08:57:05;8.00;;;2.00;;
23181;SDS011;11759;51.282;6.642;2023-04-25T08:59:33;13.10;;;2.53;;
23181;SDS011;11759;51.282;6.642;2023-04-25T09:02:05;14.95;;;2.00;;
23181;SDS011;11759;51.282;6.642;2023-04-25T09:04:32;16.42;;;3.22;;
23181;SDS011;11759;51.282;6.642;2023-04-25T09:07:00;12.35;;;2.30;;
23181;SDS011;11759;51.282;6.642;2023-04-25T09:09:29;11.82;;;2.22;;
23181;SDS011;11759;51.282;6.642;2023-04-25T09:11:56;9.73;;;1.83;;
23181;SDS011;11759;51.282;6.642;2023-04-25T09:14:24;9.80;;;2.33;;
23181;SDS011;11759;51.282;6.642;2023-04-25T09:17:10;9.82;;;2.20;;
23181;SDS011;11759;51.282;6.642;2023-04-25T09:19:43;8.20;;;1.60;;
23181;SDS011;11759;51.282;6.642;2023-04-25T09:22:20;12.90;;;2.10;;
23181;SDS011;11759;51.282;6.642;2023-04-25T09:24:52;5.90;;;1.80;;
23181;SDS011;11759;51.282;6.642;2023-04-25T09:27:22;15.27;;;2.28;;
23181;SDS011;11759;51.282;6.642;2023-04-25T09:30:05;9.45;;;2.10;;
23181;SDS011;11759;51.282;6.642;2023-04-25T09:33:05;7.25;;;1.75;;
23181;SDS011;11759;51.282;6.642;2023-04-25T09:35:38;5.30;;;1.98;;
23181;SDS011;11759;51.282;6.642;2023-04-25T09:38:16;8.35;;;1.95;;
23181;SDS011;11759;51.282;6.642;2023-04-25T09:40:57;7.68;;;1.77;;
23181;SDS011;11759;51.282;6.642;2023-04-25T09:43:39;9.10;;;1.75;;
23181;SDS011;11759;51.282;6.642;2023-04-25T09:46:09;8.93;;;1.80;;
23181;SDS011;11759;51.282;6.642;2023-04-25T09:48:41;7.88;;;1.80;;
23181;SDS011;11759;51.282;6.642;2023-04-25T09:51:18;17.77;;;2.08;;
23181;SDS011;11759;51.282;6.642;2023-04-25T09:53:46;9.18;;;1.90;;
23181;SDS011;11759;51.282;6.642;2023-04-25T09:56:35;10.40;;;1.88;;
23181;SDS011;11759;51.282;6.642;2023-04-25T09:59:05;14.15;;;2.58;;
23181;SDS011;11759;51.282;6.642;2023-04-25T10:01:34;9.73;;;1.90;;
23181;SDS011;11759;51.282;6.642;2023-04-25T10:04:10;12.15;;;2.05;;
23181;SDS011;11759;51.282;6.642;2023-04-25T10:09:20;8.65;;;1.70;;
23181;SDS011;11759;51.282;6.642;2023-04-25T10:11:48;7.45;;;1.92;;
23181;SDS011;11759;51.282;6.642;2023-04-25T10:14:16;12.32;;;1.92;;
23181;SDS011;11759;51.282;6.642;2023-04-25T10:16:43;11.60;;;1.83;;
23181;SDS011;11759;51.282;6.642;2023-04-25T10:19:09;9.82;;;1.80;;
23181;SDS011;11759;51.282;6.642;2023-04-25T10:21:40;5.53;;;1.50;;
23181;SDS011;11759;51.282;6.642;2023-04-25T10:24:12;9.85;;;1.65;;
23181;SDS011;11759;51.282;6.642;2023-04-25T10:26:39;6.70;;;2.03;;
23181;SDS011;11759;51.282;6.642;2023-04-25T10:29:06;7.32;;;1.85;;
23181;SDS011;11759;51.282;6.642;2023-04-25T10:31:33;8.48;;;1.98;;
23181;SDS011;11759;51.282;6.642;2023-04-25T10:34:00;9.32;;;1.60;;
23181;SDS011;11759;51.282;6.642;2023-04-25T10:36:30;7.88;;;1.73;;
23181;SDS011;11759;51.282;6.642;2023-04-25T10:39:02;9.88;;;1.90;;
23181;SDS011;11759;51.282;6.642;2023-04-25T10:41:45;11.90;;;2.38;;
23181;SDS011;11759;51.282;6.642;2023-04-25T10:44:13;11.00;;;1.90;;
23181;SDS011;11759;51.282;6.642;2023-04-25T10:46:40;10.68;;;2.28;;
23181;SDS011;11759;51.282;6.642;2023-04-25T10:49:07;9.93;;;2.00;;
23181;SDS011;11759;51.282;6.642;2023-04-25T10:51:35;7.72;;;1.88;;
23181;SDS011;11759;51.282;6.642;2023-04-25T10:54:21;7.03;;;1.75;;
23181;SDS011;11759;51.282;6.642;2023-04-25T10:56:48;10.80;;;2.15;;
23181;SDS011;11759;51.282;6.642;2023-04-25T10:59:17;11.20;;;1.80;;
23181;SDS011;11759;51.282;6.642;2023-04-25T11:01:46;9.40;;;1.90;;
23181;SDS011;11759;51.282;6.642;2023-04-25T11:04:23;5.05;;;1.77;;
23181;SDS011;11759;51.282;6.642;2023-04-25T11:09:40;9.10;;;1.80;;
23181;SDS011;11759;51.282;6.642;2023-04-25T11:12:07;9.05;;;2.05;;
23181;SDS011;11759;51.282;6.642;2023-04-25T11:14:35;8.35;;;1.75;;
23181;SDS011;11759;51.282;6.642;2023-04-25T11:17:02;5.03;;;1.60;;
23181;SDS011;11759;51.282;6.642;2023-04-25T11:19:29;10.48;;;2.10;;
23181;SDS011;11759;51.282;6.642;2023-04-25T11:21:57;10.02;;;2.30;;
23181;SDS011;11759;51.282;6.642;2023-04-25T11:24:28;7.40;;;2.22;;
23181;SDS011;11759;51.282;6.642;2023-04-25T11:27:03;10.80;;;1.98;;
23181;SDS011;11759;51.282;6.642;2023-04-25T11:29:31;7.75;;;2.10;;
23181;SDS011;11759;51.282;6.642;2023-04-25T11:31:58;13.43;;;2.35;;
23181;SDS011;11759;51.282;6.642;2023-04-25T11:34:27;6.15;;;1.95;;
23181;SDS011;11759;51.282;6.642;2023-04-25T11:36:57;7.65;;;1.95;;
23181;SDS011;11759;51.282;6.642;2023-04-25T11:39:24;7.28;;;2.03;;
23181;SDS011;11759;51.282;6.642;2023-04-25T11:41:51;9.85;;;1.98;;
23181;SDS011;11759;51.282;6.642;2023-04-25T11:44:26;9.75;;;2.10;;
23181;SDS011;11759;51.282;6.642;2023-04-25T11:47:02;8.90;;;2.25;;
23181;SDS011;11759;51.282;6.642;2023-04-25T11:49:38;5.90;;;2.22;;
23181;SDS011;11759;51.282;6.642;2023-04-25T11:52:06;9.35;;;2.15;;
23181;SDS011;11759;51.282;6.642;2023-04-25T11:54:37;6.13;;;1.85;;
23181;SDS011;11759;51.282;6.642;2023-04-25T11:57:07;6.28;;;1.95;;
23181;SDS011;11759;51.282;6.642;2023-04-25T11:59:37;5.43;;;1.92;;
23181;SDS011;11759;51.282;6.642;2023-04-25T12:02:03;9.68;;;2.20;;
23181;SDS011;11759;51.282;6.642;2023-04-25T12:04:33;9.32;;;2.40;;
23181;SDS011;11759;51.282;6.642;2023-04-25T12:07:00;6.53;;;1.88;;
23181;SDS011;11759;51.282;6.642;2023-04-25T12:09:29;6.15;;;1.63;;
23181;SDS011;11759;51.282;6.642;2023-04-25T12:11:59;10.80;;;2.03;;
23181;SDS011;11759;51.282;6.642;2023-04-25T12:14:32;8.00;;;1.92;;
23181;SDS011;11759;51.282;6.642;2023-04-25T12:17:03;8.13;;;2.00;;
23181;SDS011;11759;51.282;6.642;2023-04-25T12:19:33;9.82;;;2.58;;
23181;SDS011;11759;51.282;6.642;2023-04-25T12:22:07;18.02;;;2.53;;
23181;SDS011;11759;51.282;6.642;2023-04-25T12:24:46;6.63;;;2.40;;
23181;SDS011;11759;51.282;6.642;2023-04-25T12:27:14;10.93;;;3.13;;
23181;SDS011;11759;51.282;6.642;2023-04-25T12:29:52;6.85;;;2.22;;
23181;SDS011;11759;51.282;6.642;2023-04-25T12:32:20;8.82;;;2.15;;
23181;SDS011;11759;51.282;6.642;2023-04-25T12:34:47;12.32;;;2.22;;
23181;SDS011;11759;51.282;6.642;2023-04-25T12:37:13;6.93;;;1.80;;
23181;SDS011;11759;51.282;6.642;2023-04-25T12:39:40;9.15;;;1.95;;
23181;SDS011;11759;51.282;6.642;2023-04-25T12:42:07;14.75;;;2.30;;
23181;SDS011;11759;51.282;6.642;2023-04-25T12:44:39;9.25;;;2.05;;
23181;SDS011;11759;51.282;6.642;2023-04-25T12:47:07;7.60;;;2.13;;
23181;SDS011;11759;51.282;6.642;2023-04-25T12:49:33;5.03;;;1.90;;
23181;SDS011;11759;51.282;6.642;2023-04-25T12:52:01;9.27;;;1.92;;
23181;SDS011;11759;51.282;6.642;2023-04-25T12:54:27;7.38;;;1.98;;
23181;SDS011;11759;51.282;6.642;2023-04-25T12:56:54;7.32;;;2.20;;
23181;SDS011;11759;51.282;6.642;2023-04-25T12:59:31;12.20;;;1.80;;
23181;SDS011;11759;51.282;6.642;2023-04-25T13:02:04;6.68;;;2.20;;
23181;SDS011;11759;51.282;6.642;2023-04-25T13:04:31;12.45;;;2.47;;
23181;SDS011;11759;51.282;6.642;2023-04-25T13:06:59;14.25;;;2.47;;
23181;SDS011;11759;51.282;6.642;2023-04-25T13:09:26;11.88;;;2.42;;
23181;SDS011;11759;51.282;6.642;2023-04-25T13:11:52;11.55;;;2.67;;
23181;SDS011;11759;51.282;6.642;2023-04-25T13:14:37;8.30;;;2.72;;
23181;SDS011;11759;51.282;6.642;2023-04-25T13:17:04;6.38;;;2.03;;
23181;SDS011;11759;51.282;6.642;2023-04-25T13:19:31;6.75;;;1.70;;
23181;SDS011;11759;51.282;6.642;2023-04-25T13:21:58;6.80;;;1.90;;
23181;SDS011;11759;51.282;6.642;2023-04-25T13:24:25;4.55;;;1.40;;
23181;SDS011;11759;51.282;6.642;2023-04-25T13:26:54;4.80;;;2.05;;
23181;SDS011;11759;51.282;6.642;2023-04-25T13:29:21;7.72;;;1.42;;
23181;SDS011;11759;51.282;6.642;2023-04-25T13:31:48;5.15;;;1.30;;
23181;SDS011;11759;51.282;6.642;2023-04-25T13:34:15;7.85;;;1.58;;
23181;SDS011;11759;51.282;6.642;2023-04-25T13:36:42;11.32;;;1.70;;
23181;SDS011;11759;51.282;6.642;2023-04-25T13:39:09;5.30;;;1.35;;
23181;SDS011;11759;51.282;6.642;2023-04-25T13:41:37;7.00;;;1.27;;
23181;SDS011;11759;51.282;6.642;2023-04-25T13:44:04;8.50;;;1.70;;
23181;SDS011;11759;51.282;6.642;2023-04-25T13:46:32;5.20;;;1.55;;
23181;SDS011;11759;51.282;6.642;2023-04-25T13:49:13;11.48;;;1.60;;
23181;SDS011;11759;51.282;6.642;2023-04-25T13:51:44;6.30;;;1.63;;
23181;SDS011;11759;51.282;6.642;2023-04-25T13:54:11;5.85;;;1.80;;
23181;SDS011;11759;51.282;6.642;2023-04-25T13:56:38;5.68;;;1.75;;
23181;SDS011;11759;51.282;6.642;2023-04-25T13:59:05;6.50;;;1.75;;
23181;SDS011;11759;51.282;6.642;2023-04-25T14:01:31;6.28;;;1.90;;
23181;SDS011;11759;51.282;6.642;2023-04-25T14:04:17;5.70;;;1.58;;
23181;SDS011;11759;51.282;6.642;2023-04-25T14:06:43;7.32;;;2.33;;
23181;SDS011;11759;51.282;6.642;2023-04-25T14:09:10;5.97;;;1.70;;
23181;SDS011;11759;51.282;6.642;2023-04-25T14:11:38;7.30;;;1.60;;
23181;SDS011;11759;51.282;6.642;2023-04-25T14:14:05;6.65;;;1.80;;
23181;SDS011;11759;51.282;6.642;2023-04-25T14:16:35;6.25;;;1.90;;
23181;SDS011;11759;51.282;6.642;2023-04-25T14:19:02;9.60;;;2.20;;
23181;SDS011;11759;51.282;6.642;2023-04-25T14:21:29;6.15;;;2.00;;
23181;SDS011;11759;51.282;6.642;2023-04-25T14:23:58;10.35;;;1.70;;
23181;SDS011;11759;51.282;6.642;2023-04-25T14:26:25;8.38;;;1.70;;
23181;SDS011;11759;51.282;6.642;2023-04-25T14:28:52;3.80;;;1.40;;
23181;SDS011;11759;51.282;6.642;2023-04-25T14:31:19;5.57;;;1.30;;
23181;SDS011;11759;51.282;6.642;2023-04-25T14:33:46;5.03;;;1.40;;
23181;SDS011;11759;51.282;6.642;2023-04-25T14:36:16;5.65;;;1.40;;
23181;SDS011;11759;51.282;6.642;2023-04-25T14:38:44;7.57;;;1.80;;
23181;SDS011;11759;51.282;6.642;2023-04-25T14:41:10;5.93;;;1.42;;
23181;SDS011;11759;51.282;6.642;2023-04-25T14:43:38;5.72;;;1.30;;
23181;SDS011;11759;51.282;6.642;2023-04-25T14:46:06;8.38;;;1.70;;
23181;SDS011;11759;51.282;6.642;2023-04-25T14:48:36;7.15;;;1.77;;
23181;SDS011;11759;51.282;6.642;2023-04-25T14:51:03;6.45;;;1.45;;
23181;SDS011;11759;51.282;6.642;2023-04-25T14:53:33;6.30;;;1.10;;
23181;SDS011;11759;51.282;6.642;2023-04-25T14:55:59;5.78;;;1.40;;
23181;SDS011;11759;51.282;6.642;2023-04-25T14:58:26;14.38;;;1.85;;
23181;SDS011;11759;51.282;6.642;2023-04-25T15:00:53;4.28;;;1.30;;
23181;SDS011;11759;51.282;6.642;2023-04-25T15:03:20;7.38;;;1.55;;
23181;SDS011;11759;51.282;6.642;2023-04-25T15:05:47;8.15;;;1.70;;
23181;SDS011;11759;51.282;6.642;2023-04-25T15:08:13;2.13;;;1.25;;
23181;SDS011;11759;51.282;6.642;2023-04-25T15:10:40;7.97;;;1.48;;
23181;SDS011;11759;51.282;6.642;2023-04-25T15:13:06;4.47;;;1.30;;